createdAt,value
2022-09-28T00:00:50.835Z,54.90
2022-09-28T00:06:01.056Z,54.95
2022-09-28T00:08:28.277Z,55.12
2022-09-28T00:10:55.446Z,54.68
2022-09-28T00:13:22.647Z,55.14
2022-09-28T00:15:48.999Z,54.93
2022-09-28T00:21:09.431Z,54.70
2022-09-28T00:23:35.791Z,54.76
2022-09-28T00:26:02.142Z,54.56
2022-09-28T00:28:31.259Z,54.82
2022-09-28T00:30:57.662Z,54.95
2022-09-28T00:36:18.754Z,54.83
2022-09-28T00:38:45.104Z,54.85
2022-09-28T00:41:11.582Z,54.47
2022-09-28T00:43:37.926Z,54.48
2022-09-28T00:46:04.371Z,54.40
2022-09-28T00:51:24.441Z,55.00
2022-09-28T00:53:50.807Z,54.65
2022-09-28T00:56:17.154Z,54.51
2022-09-28T00:58:43.479Z,54.80
2022-09-28T01:01:09.841Z,54.50
2022-09-28T01:06:29.885Z,54.85
2022-09-28T01:08:56.986Z,55.13
2022-09-28T01:11:23.293Z,54.78
2022-09-28T01:13:49.666Z,54.75
2022-09-28T01:16:16.047Z,54.79
2022-09-28T01:21:26.202Z,54.61
2022-09-28T01:23:52.530Z,54.53
2022-09-28T01:26:18.920Z,54.82
2022-09-28T01:28:45.231Z,54.55
2022-09-28T01:31:11.596Z,54.52
2022-09-28T01:36:32.079Z,54.91
2022-09-28T01:38:58.391Z,54.82
2022-09-28T01:41:24.712Z,54.64
2022-09-28T01:43:51.023Z,54.64
2022-09-28T01:46:17.411Z,54.69
2022-09-28T01:51:37.812Z,54.69
2022-09-28T01:54:04.164Z,54.37
2022-09-28T01:56:30.495Z,54.39
2022-09-28T01:58:56.871Z,54.61
2022-09-28T02:01:25.994Z,54.46
2022-09-28T02:06:46.186Z,54.70
2022-09-28T02:09:12.589Z,54.72
2022-09-28T02:11:38.890Z,54.73
2022-09-28T02:14:05.294Z,54.64
2022-09-28T02:16:31.638Z,54.52
2022-09-28T02:18:57.942Z,54.46
2022-09-28T02:21:24.250Z,54.44
2022-09-28T02:23:50.521Z,54.39
2022-09-28T02:26:16.839Z,54.10
2022-09-28T02:28:43.117Z,54.18
2022-09-28T02:31:09.521Z,54.21
2022-09-28T02:33:35.903Z,54.36
2022-09-28T02:36:05.078Z,54.41
2022-09-28T02:38:34.171Z,54.07
2022-09-28T02:41:00.567Z,54.65
2022-09-28T02:43:26.881Z,54.09
2022-09-28T02:45:53.253Z,54.16
2022-09-28T02:48:35.954Z,54.25
2022-09-28T02:51:05.956Z,54.33
2022-09-28T02:53:32.254Z,54.47
2022-09-28T02:55:58.538Z,54.54
2022-09-28T02:58:24.841Z,54.34
2022-09-28T03:00:54.002Z,54.20
2022-09-28T03:03:20.399Z,54.74
2022-09-28T03:05:46.692Z,54.45
2022-09-28T03:08:14.105Z,54.26
2022-09-28T03:10:43.188Z,54.53
2022-09-28T03:13:09.478Z,54.19
2022-09-28T03:15:38.585Z,54.28
2022-09-28T03:18:04.879Z,54.33
2022-09-28T03:20:33.971Z,54.05
2022-09-28T03:23:23.193Z,54.11
2022-09-28T03:25:49.333Z,54.06
2022-09-28T03:28:15.628Z,54.20
2022-09-28T03:30:44.772Z,54.45
2022-09-28T03:33:11.066Z,54.44
2022-09-28T03:35:37.338Z,54.21
2022-09-28T03:38:06.481Z,54.00
2022-09-28T03:40:32.815Z,54.21
2022-09-28T03:42:59.154Z,54.11
2022-09-28T03:45:25.548Z,53.90
2022-09-28T03:47:51.912Z,54.41
2022-09-28T03:50:21.013Z,54.09
2022-09-28T03:52:50.086Z,54.18
2022-09-28T03:55:16.405Z,54.43
2022-09-28T03:57:42.714Z,54.39
2022-09-28T04:00:09.027Z,54.40
2022-09-28T04:02:35.382Z,54.47
2022-09-28T04:05:01.740Z,54.29
2022-09-28T04:10:11.971Z,54.15
2022-09-28T04:12:38.300Z,54.37
2022-09-28T04:15:04.611Z,54.04
2022-09-28T04:17:30.906Z,54.20
2022-09-28T04:19:57.219Z,54.11
2022-09-28T04:25:18.479Z,54.05
2022-09-28T04:27:44.777Z,53.94
2022-09-28T04:30:11.124Z,54.00
2022-09-28T04:32:37.472Z,54.06
2022-09-28T04:35:03.790Z,54.52
2022-09-28T04:40:13.856Z,54.12
2022-09-28T04:42:40.156Z,54.02
2022-09-28T04:45:06.549Z,54.05
2022-09-28T04:47:35.636Z,54.27
2022-09-28T04:50:01.948Z,53.89
2022-09-28T04:55:25.174Z,54.00
2022-09-28T04:57:51.497Z,54.43
2022-09-28T05:00:18.658Z,53.97
2022-09-28T05:02:45.037Z,54.58
2022-09-28T05:05:11.382Z,54.77
2022-09-28T05:10:31.640Z,54.25
2022-09-28T05:12:57.986Z,54.48
2022-09-28T05:15:25.199Z,54.56
2022-09-28T05:17:51.613Z,54.44
2022-09-28T05:20:18.818Z,54.75
2022-09-28T05:25:29.254Z,55.02
2022-09-28T05:27:55.582Z,54.77
2022-09-28T05:30:21.899Z,54.89
2022-09-28T05:32:48.239Z,55.04
2022-09-28T05:35:14.596Z,55.69
2022-09-28T05:40:26.764Z,56.04
2022-09-28T05:42:55.073Z,55.98
2022-09-28T05:45:21.516Z,56.47
2022-09-28T05:47:48.772Z,56.65
2022-09-28T05:50:16.012Z,56.62
2022-09-28T05:55:37.162Z,57.03
2022-09-28T05:58:04.405Z,56.69
2022-09-28T06:00:31.715Z,56.64
2022-09-28T06:02:58.137Z,56.68
2022-09-28T06:05:24.565Z,56.47
2022-09-28T06:10:44.831Z,56.51
2022-09-28T06:13:11.383Z,56.35
2022-09-28T06:15:38.643Z,56.54
2022-09-28T06:18:05.312Z,56.80
2022-09-28T06:20:32.908Z,56.57
2022-09-28T06:25:44.408Z,56.71
2022-09-28T06:28:11.947Z,56.58
2022-09-28T06:30:39.635Z,56.54
2022-09-28T06:33:06.386Z,56.39
2022-09-28T06:35:33.865Z,56.27
2022-09-28T06:40:45.161Z,55.37
2022-09-28T06:43:12.435Z,55.32
2022-09-28T06:45:38.902Z,55.32
2022-09-28T06:48:06.139Z,54.90
2022-09-28T06:50:32.624Z,54.80
2022-09-28T06:55:43.860Z,54.25
2022-09-28T06:58:11.101Z,54.10
2022-09-28T07:00:37.502Z,53.53
2022-09-28T07:03:03.944Z,53.46
2022-09-28T07:05:30.381Z,53.24
2022-09-28T07:10:51.546Z,53.11
2022-09-28T07:13:43.699Z,52.79
2022-09-28T07:16:04.357Z,53.16
2022-09-28T07:18:30.850Z,52.86
2022-09-28T07:20:57.320Z,52.86
2022-09-28T07:26:23.038Z,52.58
2022-09-28T07:28:51.533Z,52.73
2022-09-28T07:31:18.865Z,52.74
2022-09-28T07:33:45.363Z,52.71
2022-09-28T07:36:11.764Z,52.44
2022-09-28T07:41:33.375Z,52.49
2022-09-28T07:44:00.724Z,52.16
2022-09-28T07:46:28.018Z,52.30
2022-09-28T07:48:55.266Z,52.45
2022-09-28T07:51:22.591Z,52.83
2022-09-28T07:56:33.890Z,52.29
2022-09-28T07:59:01.251Z,52.30
2022-09-28T08:01:28.616Z,52.62
2022-09-28T08:03:55.076Z,52.63
2022-09-28T08:06:22.371Z,52.29
2022-09-28T08:11:42.651Z,52.29
2022-09-28T08:14:09.943Z,52.45
2022-09-28T08:19:08.676Z,52.25
2022-09-28T08:21:35.058Z,52.33
2022-09-28T08:26:56.263Z,52.18
2022-09-28T08:29:22.668Z,52.28
2022-09-28T08:31:49.083Z,52.31
2022-09-28T08:34:15.515Z,52.13
2022-09-28T08:36:42.765Z,52.11
2022-09-28T08:41:56.456Z,52.13
2022-09-28T08:44:23.727Z,52.24
2022-09-28T08:46:50.994Z,52.10
2022-09-28T08:49:25.678Z,52.33
2022-09-28T08:51:52.502Z,52.31
2022-09-28T08:57:02.772Z,52.02
2022-09-28T08:59:31.053Z,52.03
2022-09-28T09:01:58.079Z,52.12
2022-09-28T09:04:24.564Z,51.60
2022-09-28T09:06:51.801Z,51.90
2022-09-28T09:12:13.035Z,51.69
2022-09-28T09:14:39.501Z,51.27
2022-09-28T09:17:06.831Z,51.92
2022-09-28T09:19:34.107Z,51.84
2022-09-28T09:22:00.527Z,51.78
2022-09-28T09:27:20.843Z,51.77
2022-09-28T09:29:48.160Z,51.54
2022-09-28T09:32:14.575Z,51.50
2022-09-28T09:34:41.872Z,51.45
2022-09-28T09:37:08.338Z,51.50
2022-09-28T09:42:19.691Z,51.33
2022-09-28T09:44:46.984Z,51.05
2022-09-28T09:47:13.399Z,51.03
2022-09-28T09:49:40.716Z,51.07
2022-09-28T09:52:08.096Z,51.06
2022-09-28T09:57:18.391Z,51.03
2022-09-28T09:59:44.792Z,51.07
2022-09-28T10:02:12.073Z,50.97
2022-09-28T10:04:40.416Z,51.18
2022-09-28T10:07:07.651Z,50.89
2022-09-28T10:12:27.921Z,50.85
2022-09-28T10:14:55.176Z,50.53
2022-09-28T10:17:21.584Z,50.78
2022-09-28T10:19:47.990Z,50.73
2022-09-28T10:22:16.290Z,50.35
2022-09-28T10:27:37.498Z,50.22
2022-09-28T10:30:04.740Z,50.05
2022-09-28T10:32:31.131Z,50.10
2022-09-28T10:34:57.555Z,49.88
2022-09-28T10:37:24.036Z,49.96
2022-09-28T10:42:44.341Z,49.66
2022-09-28T10:45:11.548Z,49.47
2022-09-28T10:47:37.973Z,48.98
2022-09-28T10:50:05.189Z,48.56
2022-09-28T10:52:31.770Z,49.13
2022-09-28T10:57:51.742Z,48.55
2022-09-28T11:00:18.132Z,48.23
2022-09-28T11:02:44.548Z,48.13
2022-09-28T11:05:10.967Z,47.77
2022-09-28T11:07:38.194Z,47.91
2022-09-28T11:12:58.527Z,49.00
2022-09-28T11:15:24.938Z,48.66
2022-09-28T11:17:51.306Z,49.26
2022-09-28T11:20:18.016Z,49.05
2022-09-28T11:22:45.283Z,48.99
2022-09-28T11:27:55.467Z,49.46
2022-09-28T11:30:22.746Z,50.58
2022-09-28T11:32:51.020Z,49.03
2022-09-28T11:35:17.385Z,49.79
2022-09-28T11:37:43.796Z,48.78
2022-09-28T11:42:55.195Z,49.96
2022-09-28T11:45:21.559Z,49.33
2022-09-28T11:47:47.887Z,49.36
2022-09-28T11:50:14.230Z,49.02
2022-09-28T11:52:40.581Z,49.79
2022-09-28T11:57:50.852Z,50.24
2022-09-28T12:00:18.175Z,50.16
2022-09-28T12:02:44.652Z,49.71
2022-09-28T12:05:11.050Z,49.26
2022-09-28T12:07:37.373Z,49.38
2022-09-28T12:10:03.708Z,49.95
2022-09-28T12:12:30.026Z,49.16
2022-09-28T12:14:57.235Z,49.44
2022-09-28T12:17:23.615Z,49.30
2022-09-28T12:19:49.976Z,48.96
2022-09-28T12:22:16.303Z,49.17
2022-09-28T12:24:42.640Z,49.78
2022-09-28T12:27:09.007Z,49.08
2022-09-28T12:29:35.342Z,49.97
2022-09-28T12:32:01.660Z,49.70
2022-09-28T12:34:27.997Z,49.34
2022-09-28T12:36:54.353Z,50.28
2022-09-28T12:39:35.746Z,49.69
2022-09-28T12:42:07.034Z,49.21
2022-09-28T12:44:33.370Z,50.03
2022-09-28T12:46:59.757Z,48.92
2022-09-28T12:52:12.426Z,48.84
2022-09-28T12:54:38.773Z,49.47
2022-09-28T12:57:05.174Z,49.32
2022-09-28T12:59:31.477Z,49.06
2022-09-28T13:01:57.848Z,48.58
2022-09-28T13:04:24.200Z,49.33
2022-09-28T13:06:50.507Z,48.86
2022-09-28T13:09:17.781Z,48.14
2022-09-28T13:11:44.147Z,48.65
2022-09-28T13:14:10.482Z,48.98
2022-09-28T13:16:36.819Z,49.09
2022-09-28T13:19:03.198Z,49.23
2022-09-28T13:21:29.544Z,49.37
2022-09-28T13:24:08.715Z,50.27
2022-09-28T13:26:42.168Z,50.18
2022-09-28T13:29:09.362Z,50.31
2022-09-28T13:31:37.175Z,50.02
2022-09-28T13:34:06.507Z,50.50
2022-09-28T13:36:32.897Z,50.61
2022-09-28T13:38:59.247Z,50.33
2022-09-28T13:41:25.597Z,50.65
2022-09-28T13:43:51.928Z,50.95
2022-09-28T13:46:19.180Z,50.79
2022-09-28T13:48:45.626Z,50.83
2022-09-28T13:51:11.936Z,50.87
2022-09-28T13:53:39.653Z,51.14
2022-09-28T13:56:06.068Z,51.21
2022-09-28T14:01:16.380Z,51.38
2022-09-28T14:03:42.743Z,51.47
2022-09-28T14:06:09.948Z,51.39
2022-09-28T14:08:36.304Z,51.79
2022-09-28T14:11:02.642Z,51.61
2022-09-28T14:16:12.667Z,51.70
2022-09-28T14:18:39.067Z,52.12
2022-09-28T14:21:05.464Z,52.00
2022-09-28T14:23:31.789Z,51.95
2022-09-28T14:25:58.131Z,52.01
2022-09-28T14:31:18.340Z,52.08
2022-09-28T14:33:44.677Z,51.95
2022-09-28T14:36:11.050Z,52.16
2022-09-28T14:38:37.399Z,52.33
2022-09-28T14:41:03.775Z,52.11
2022-09-28T14:46:23.880Z,52.30
2022-09-28T14:48:50.277Z,52.15
2022-09-28T14:51:16.604Z,52.25
2022-09-28T14:53:42.928Z,52.34
2022-09-28T14:56:09.274Z,52.18
2022-09-28T15:01:19.547Z,52.25
2022-09-28T15:03:45.894Z,51.94
2022-09-28T15:06:13.090Z,52.21
2022-09-28T15:08:39.400Z,52.30
2022-09-28T15:11:05.784Z,51.94
2022-09-28T15:16:16.265Z,52.64
2022-09-28T15:18:42.631Z,52.35
2022-09-28T15:21:09.843Z,52.57
2022-09-28T15:23:36.149Z,52.48
2022-09-28T15:26:02.599Z,52.73
2022-09-28T15:31:14.681Z,52.41
2022-09-28T15:33:41.055Z,52.49
2022-09-28T15:36:08.246Z,52.62
2022-09-28T15:38:34.573Z,52.59
2022-09-28T15:41:00.975Z,52.39
2022-09-28T15:46:12.877Z,52.96
2022-09-28T15:48:39.249Z,52.73
2022-09-28T15:51:05.589Z,52.72
2022-09-28T15:53:31.941Z,52.69
2022-09-28T15:55:58.287Z,52.65
2022-09-28T16:01:20.588Z,52.07
2022-09-28T16:03:47.001Z,51.49
2022-09-28T16:06:14.242Z,51.25
2022-09-28T16:08:40.609Z,50.76
2022-09-28T16:11:06.965Z,50.33
2022-09-28T16:16:28.873Z,49.83
2022-09-28T16:18:56.086Z,49.70
2022-09-28T16:21:23.301Z,49.84
2022-09-28T16:23:49.700Z,49.77
2022-09-28T16:26:16.091Z,49.51
2022-09-28T16:31:36.245Z,49.91
2022-09-28T16:34:02.810Z,50.07
2022-09-28T16:36:29.240Z,50.63
2022-09-28T16:38:55.584Z,50.46
2022-09-28T16:41:22.155Z,50.67
2022-09-28T16:46:32.292Z,49.94
2022-09-28T16:48:58.929Z,50.46
2022-09-28T16:51:27.182Z,50.56
2022-09-28T16:53:54.693Z,50.36
2022-09-28T16:56:21.666Z,51.03
2022-09-28T17:01:32.927Z,50.91
2022-09-28T17:04:01.535Z,51.17
2022-09-28T17:06:29.830Z,50.77
2022-09-28T17:08:57.051Z,51.32
2022-09-28T17:11:24.911Z,51.11
2022-09-28T17:17:07.347Z,51.05
2022-09-28T17:19:21.820Z,51.20
2022-09-28T17:21:49.048Z,51.06
2022-09-28T17:24:15.537Z,51.36
2022-09-28T17:26:41.911Z,51.48
2022-09-28T17:32:03.166Z,51.72
2022-09-28T17:34:29.527Z,51.58
2022-09-28T17:36:56.033Z,52.07
2022-09-28T17:39:24.302Z,52.01
2022-09-28T17:41:50.719Z,51.35
2022-09-28T17:47:11.712Z,51.83
2022-09-28T17:49:38.071Z,51.63
2022-09-28T17:52:04.655Z,51.98
2022-09-28T17:54:31.003Z,51.77
2022-09-28T17:56:57.332Z,51.50
2022-09-28T18:02:17.498Z,51.31
2022-09-28T18:04:52.499Z,51.68
2022-09-28T18:07:19.011Z,51.27
2022-09-28T18:09:45.449Z,52.35
2022-09-28T18:12:12.656Z,51.42
2022-09-28T18:17:23.113Z,51.79
2022-09-28T18:19:49.626Z,51.25
2022-09-28T18:22:15.976Z,51.82
2022-09-28T18:24:42.333Z,52.91
2022-09-28T18:27:08.905Z,53.07
2022-09-28T18:32:19.685Z,53.60
2022-09-28T18:34:46.014Z,53.51
2022-09-28T18:37:13.232Z,53.69
2022-09-28T18:39:39.847Z,53.60
2022-09-28T18:42:06.270Z,53.91
2022-09-28T18:47:26.873Z,53.86
2022-09-28T18:49:53.568Z,53.62
2022-09-28T18:52:20.263Z,53.64
2022-09-28T18:54:46.642Z,53.92
2022-09-28T18:57:13.062Z,53.48
2022-09-28T19:02:23.703Z,54.16
2022-09-28T19:04:50.281Z,53.18
2022-09-28T19:07:16.823Z,53.00
2022-09-28T19:09:43.462Z,52.78
2022-09-28T19:12:09.861Z,52.77
2022-09-28T19:14:36.156Z,52.38
2022-09-28T19:17:02.530Z,52.31
2022-09-28T19:19:28.859Z,52.20
2022-09-28T19:21:55.213Z,52.01
2022-09-28T19:24:21.783Z,51.71
2022-09-28T19:26:48.195Z,51.60
2022-09-28T19:29:14.725Z,51.55
2022-09-28T19:31:41.139Z,51.73
2022-09-28T19:34:10.493Z,51.19
2022-09-28T19:36:39.970Z,51.25
2022-09-28T19:39:06.371Z,51.47
2022-09-28T19:41:32.711Z,51.11
2022-09-28T19:43:59.018Z,51.27
2022-09-28T19:46:25.353Z,51.63
2022-09-28T19:48:51.732Z,52.35
2022-09-28T19:51:18.137Z,52.07
2022-09-28T19:53:44.510Z,52.67
2022-09-28T19:56:10.830Z,53.09
2022-09-28T19:58:39.953Z,52.80
2022-09-28T20:01:06.294Z,52.88
2022-09-28T20:03:32.643Z,52.88
2022-09-28T20:05:58.978Z,53.46
2022-09-28T20:08:25.257Z,53.28
2022-09-28T20:10:51.559Z,52.75
2022-09-28T20:13:17.912Z,53.36
2022-09-28T20:15:44.260Z,53.53
2022-09-28T20:18:10.600Z,53.44
2022-09-28T20:20:36.916Z,53.74
2022-09-28T20:23:06.004Z,53.69
2022-09-28T20:25:35.102Z,53.36
2022-09-28T20:28:01.391Z,54.00
2022-09-28T20:30:30.489Z,53.21
2022-09-28T20:32:59.585Z,53.24
2022-09-28T20:35:33.100Z,53.09
2022-09-28T20:38:02.532Z,52.48
2022-09-28T20:40:28.949Z,52.49
2022-09-28T20:42:55.292Z,52.30
2022-09-28T20:45:24.403Z,53.07
2022-09-28T20:50:50.147Z,53.26
2022-09-28T20:53:19.275Z,52.86
2022-09-28T20:55:48.363Z,52.79
2022-09-28T20:58:15.290Z,52.69
2022-09-28T21:00:44.418Z,52.48
2022-09-28T21:06:11.515Z,52.63
2022-09-28T21:08:38.689Z,52.85
2022-09-28T21:11:05.087Z,52.43
2022-09-28T21:13:34.189Z,52.97
2022-09-28T21:16:00.539Z,52.52
2022-09-28T21:18:26.957Z,52.37
2022-09-28T21:20:53.291Z,51.97
2022-09-28T21:23:23.976Z,51.94
2022-09-28T21:25:54.736Z,51.84
2022-09-28T21:28:21.175Z,52.31
2022-09-28T21:30:49.446Z,52.73
2022-09-28T21:33:16.709Z,52.91
2022-09-28T21:35:43.104Z,52.98
2022-09-28T21:38:09.464Z,52.50
2022-09-28T21:40:35.788Z,52.36
2022-09-28T21:43:02.119Z,52.83
2022-09-28T21:45:28.425Z,52.02
2022-09-28T21:47:54.756Z,52.51
2022-09-28T21:50:21.084Z,52.67
2022-09-28T21:52:47.554Z,52.34
2022-09-28T21:55:13.883Z,52.27
2022-09-28T21:57:40.233Z,52.70
2022-09-28T22:00:06.587Z,52.30
2022-09-28T22:02:32.985Z,52.39
2022-09-28T22:04:59.392Z,52.45
2022-09-28T22:07:25.735Z,52.19
2022-09-28T22:09:53.649Z,52.18
2022-09-28T22:12:20.093Z,52.37
2022-09-28T22:14:46.484Z,52.50
2022-09-28T22:17:12.818Z,52.09
2022-09-28T22:19:39.160Z,52.63
2022-09-28T22:22:05.500Z,52.15
2022-09-28T22:24:31.831Z,52.54
2022-09-28T22:26:58.169Z,52.29
2022-09-28T22:29:24.498Z,52.17
2022-09-28T22:31:50.838Z,52.01
2022-09-28T22:34:18.024Z,51.92
2022-09-28T22:36:44.368Z,52.50
2022-09-28T22:39:10.688Z,51.85
2022-09-28T22:41:37.072Z,52.05
2022-09-28T22:44:03.425Z,52.09
2022-09-28T22:46:29.812Z,52.02
2022-09-28T22:48:56.338Z,52.01
2022-09-28T22:51:22.653Z,51.89
2022-09-28T22:53:48.939Z,51.93
2022-09-28T22:56:18.971Z,51.80
2022-09-28T22:58:45.644Z,52.06
2022-09-28T23:01:12.037Z,51.90
2022-09-28T23:03:38.392Z,51.79
2022-09-28T23:06:04.779Z,51.72
2022-09-28T23:08:31.118Z,51.80
2022-09-28T23:10:57.619Z,52.03
2022-09-28T23:13:23.929Z,51.64
2022-09-28T23:15:50.326Z,52.06
2022-09-28T23:18:16.669Z,52.02
2022-09-28T23:20:42.988Z,51.75
2022-09-28T23:23:09.350Z,52.08
2022-09-28T23:25:35.687Z,51.94
2022-09-28T23:28:02.927Z,51.92
2022-09-28T23:30:29.282Z,51.98
2022-09-28T23:32:55.655Z,52.03
2022-09-28T23:35:22.007Z,52.30
2022-09-28T23:37:48.335Z,51.83
2022-09-28T23:40:15.539Z,51.88
2022-09-28T23:42:44.843Z,52.19
2022-09-28T23:45:11.226Z,52.08
2022-09-28T23:47:38.525Z,52.06
2022-09-28T23:50:04.888Z,51.79
2022-09-28T23:52:31.281Z,51.75
2022-09-28T23:55:00.404Z,52.40
2022-09-28T23:57:26.798Z,52.06
2022-09-28T23:59:53.220Z,52.25
